Es Semara, Morocco
Current Conditions -  °F | °C
As of 11:00 PM on Thursday 20 Nov 2014 (Local Time) from GMML Reporting Station
Broken Clouds Broken Clouds  
Wind Chill: 61°   Ceiling: 7000
Heat Index: 61°   Visibility: 5mi
Dew Point: 57°   Wind: 9mph
Humidity: 88%   Direction: 200°SSW
Pressure: 29.74"   Gusts: NA
Location:  26.68°N, 11.67°W
Report Text: GMML 202200Z 20008KT 8000 FEW017 BKN070 16/14 Q1007 BECMG SHRA
Loading
Personal Weather Stations






























Interactive Weather Map New forecast layout! Learn more

10-Day Weather Forecast

Advertisements
Track Severe Weather on mobile